sensor_id;sensor_type;location;lat;lon;timestamp;P1;durP1;ratioP1;P2;durP2;ratioP2
22711;SDS011;11523;50.390;8.072;2023-08-06T00:01:28;2.92;;;2.72;;
22711;SDS011;11523;50.390;8.072;2023-08-06T00:03:54;5.22;;;2.78;;
22711;SDS011;11523;50.390;8.072;2023-08-06T00:06:20;3.35;;;2.53;;
22711;SDS011;11523;50.390;8.072;2023-08-06T00:08:46;11.85;;;2.83;;
22711;SDS011;11523;50.390;8.072;2023-08-06T00:11:12;5.95;;;3.05;;
22711;SDS011;11523;50.390;8.072;2023-08-06T00:13:38;3.80;;;2.65;;
22711;SDS011;11523;50.390;8.072;2023-08-06T00:16:08;3.35;;;2.70;;
22711;SDS011;11523;50.390;8.072;2023-08-06T00:18:34;3.25;;;2.58;;
22711;SDS011;11523;50.390;8.072;2023-08-06T00:21:00;2.88;;;2.55;;
22711;SDS011;11523;50.390;8.072;2023-08-06T00:23:26;4.22;;;2.97;;
22711;SDS011;11523;50.390;8.072;2023-08-06T00:25:52;4.78;;;2.80;;
22711;SDS011;11523;50.390;8.072;2023-08-06T00:28:18;4.35;;;2.75;;
22711;SDS011;11523;50.390;8.072;2023-08-06T00:30:44;2.88;;;2.60;;
22711;SDS011;11523;50.390;8.072;2023-08-06T00:33:10;3.72;;;2.63;;
22711;SDS011;11523;50.390;8.072;2023-08-06T00:35:36;5.32;;;2.85;;
22711;SDS011;11523;50.390;8.072;2023-08-06T00:38:02;3.15;;;2.70;;
22711;SDS011;11523;50.390;8.072;2023-08-06T00:40:28;3.72;;;2.85;;
22711;SDS011;11523;50.390;8.072;2023-08-06T00:42:55;4.10;;;3.13;;
22711;SDS011;11523;50.390;8.072;2023-08-06T00:45:21;3.88;;;3.38;;
22711;SDS011;11523;50.390;8.072;2023-08-06T00:47:48;5.55;;;2.85;;
22711;SDS011;11523;50.390;8.072;2023-08-06T00:50:14;3.70;;;3.20;;
22711;SDS011;11523;50.390;8.072;2023-08-06T00:52:41;4.72;;;3.05;;
22711;SDS011;11523;50.390;8.072;2023-08-06T00:55:07;7.25;;;3.33;;
22711;SDS011;11523;50.390;8.072;2023-08-06T00:57:33;4.45;;;3.17;;
22711;SDS011;11523;50.390;8.072;2023-08-06T00:59:59;5.18;;;3.30;;
22711;SDS011;11523;50.390;8.072;2023-08-06T01:02:25;5.47;;;3.25;;
22711;SDS011;11523;50.390;8.072;2023-08-06T01:04:51;3.28;;;2.90;;
22711;SDS011;11523;50.390;8.072;2023-08-06T01:07:51;4.50;;;3.00;;
22711;SDS011;11523;50.390;8.072;2023-08-06T01:12:45;3.17;;;2.50;;
22711;SDS011;11523;50.390;8.072;2023-08-06T01:17:39;3.40;;;2.90;;
22711;SDS011;11523;50.390;8.072;2023-08-06T01:20:06;4.55;;;2.47;;
22711;SDS011;11523;50.390;8.072;2023-08-06T01:22:32;6.50;;;2.75;;
22711;SDS011;11523;50.390;8.072;2023-08-06T01:24:58;4.22;;;2.88;;
22711;SDS011;11523;50.390;8.072;2023-08-06T01:27:32;5.78;;;2.80;;
22711;SDS011;11523;50.390;8.072;2023-08-06T01:30:02;2.63;;;2.42;;
22711;SDS011;11523;50.390;8.072;2023-08-06T01:32:29;5.80;;;2.83;;
22711;SDS011;11523;50.390;8.072;2023-08-06T01:34:55;2.80;;;2.58;;
22711;SDS011;11523;50.390;8.072;2023-08-06T01:37:24;2.92;;;2.50;;
22711;SDS011;11523;50.390;8.072;2023-08-06T01:39:50;3.53;;;2.75;;
22711;SDS011;11523;50.390;8.072;2023-08-06T01:42:16;3.38;;;2.88;;
22711;SDS011;11523;50.390;8.072;2023-08-06T01:44:42;4.40;;;2.97;;
22711;SDS011;11523;50.390;8.072;2023-08-06T01:47:08;4.20;;;3.00;;
22711;SDS011;11523;50.390;8.072;2023-08-06T01:49:34;6.90;;;2.78;;
22711;SDS011;11523;50.390;8.072;2023-08-06T01:52:03;5.38;;;2.83;;
22711;SDS011;11523;50.390;8.072;2023-08-06T01:54:32;3.13;;;2.30;;
22711;SDS011;11523;50.390;8.072;2023-08-06T01:56:58;3.97;;;2.88;;
22711;SDS011;11523;50.390;8.072;2023-08-06T01:59:24;4.00;;;2.45;;
22711;SDS011;11523;50.390;8.072;2023-08-06T02:01:50;5.15;;;2.80;;
22711;SDS011;11523;50.390;8.072;2023-08-06T02:04:16;3.08;;;2.70;;
22711;SDS011;11523;50.390;8.072;2023-08-06T02:06:42;3.08;;;2.78;;
22711;SDS011;11523;50.390;8.072;2023-08-06T02:09:08;2.45;;;2.25;;
22711;SDS011;11523;50.390;8.072;2023-08-06T02:11:34;3.40;;;2.67;;
22711;SDS011;11523;50.390;8.072;2023-08-06T02:14:00;4.13;;;2.83;;
22711;SDS011;11523;50.390;8.072;2023-08-06T02:16:26;7.93;;;3.08;;
22711;SDS011;11523;50.390;8.072;2023-08-06T02:18:52;4.97;;;2.90;;
22711;SDS011;11523;50.390;8.072;2023-08-06T02:21:18;5.57;;;2.58;;
22711;SDS011;11523;50.390;8.072;2023-08-06T02:23:44;5.45;;;2.75;;
22711;SDS011;11523;50.390;8.072;2023-08-06T02:26:10;6.35;;;2.45;;
22711;SDS011;11523;50.390;8.072;2023-08-06T02:28:36;3.45;;;2.80;;
22711;SDS011;11523;50.390;8.072;2023-08-06T02:31:02;3.22;;;2.72;;
22711;SDS011;11523;50.390;8.072;2023-08-06T02:33:28;4.15;;;3.03;;
22711;SDS011;11523;50.390;8.072;2023-08-06T02:36:01;3.83;;;2.58;;
22711;SDS011;11523;50.390;8.072;2023-08-06T02:38:29;6.47;;;2.72;;
22711;SDS011;11523;50.390;8.072;2023-08-06T02:40:55;5.95;;;3.00;;
22711;SDS011;11523;50.390;8.072;2023-08-06T02:43:22;4.78;;;2.83;;
22711;SDS011;11523;50.390;8.072;2023-08-06T02:45:50;2.60;;;2.40;;
22711;SDS011;11523;50.390;8.072;2023-08-06T02:48:16;3.33;;;2.42;;
22711;SDS011;11523;50.390;8.072;2023-08-06T02:50:43;4.15;;;2.70;;
22711;SDS011;11523;50.390;8.072;2023-08-06T02:53:09;3.42;;;2.35;;
22711;SDS011;11523;50.390;8.072;2023-08-06T02:55:35;3.33;;;2.30;;
22711;SDS011;11523;50.390;8.072;2023-08-06T02:58:04;4.30;;;2.42;;
22711;SDS011;11523;50.390;8.072;2023-08-06T03:00:30;3.60;;;2.67;;
22711;SDS011;11523;50.390;8.072;2023-08-06T03:02:56;3.92;;;2.42;;
22711;SDS011;11523;50.390;8.072;2023-08-06T03:05:22;7.68;;;2.95;;
22711;SDS011;11523;50.390;8.072;2023-08-06T03:07:48;3.78;;;2.55;;
22711;SDS011;11523;50.390;8.072;2023-08-06T03:10:14;3.25;;;2.42;;
22711;SDS011;11523;50.390;8.072;2023-08-06T03:12:42;2.97;;;2.50;;
22711;SDS011;11523;50.390;8.072;2023-08-06T03:15:08;5.60;;;2.67;;
22711;SDS011;11523;50.390;8.072;2023-08-06T03:17:35;3.03;;;2.30;;
22711;SDS011;11523;50.390;8.072;2023-08-06T03:20:01;4.82;;;2.35;;
22711;SDS011;11523;50.390;8.072;2023-08-06T03:22:29;2.97;;;2.45;;
22711;SDS011;11523;50.390;8.072;2023-08-06T03:24:55;3.25;;;2.42;;
22711;SDS011;11523;50.390;8.072;2023-08-06T03:27:21;4.82;;;2.40;;
22711;SDS011;11523;50.390;8.072;2023-08-06T03:29:50;5.35;;;2.30;;
22711;SDS011;11523;50.390;8.072;2023-08-06T03:32:16;4.88;;;2.72;;
22711;SDS011;11523;50.390;8.072;2023-08-06T03:34:42;3.78;;;2.20;;
22711;SDS011;11523;50.390;8.072;2023-08-06T03:37:15;5.35;;;2.40;;
22711;SDS011;11523;50.390;8.072;2023-08-06T03:39:41;3.90;;;2.40;;
22711;SDS011;11523;50.390;8.072;2023-08-06T03:42:07;3.10;;;2.55;;
22711;SDS011;11523;50.390;8.072;2023-08-06T03:44:33;3.13;;;2.35;;
22711;SDS011;11523;50.390;8.072;2023-08-06T03:46:59;3.53;;;2.28;;
22711;SDS011;11523;50.390;8.072;2023-08-06T03:49:27;3.53;;;2.58;;
22711;SDS011;11523;50.390;8.072;2023-08-06T03:51:53;2.95;;;2.45;;
22711;SDS011;11523;50.390;8.072;2023-08-06T03:54:19;5.63;;;2.35;;
22711;SDS011;11523;50.390;8.072;2023-08-06T03:56:45;3.45;;;2.40;;
22711;SDS011;11523;50.390;8.072;2023-08-06T03:59:11;2.95;;;2.33;;
22711;SDS011;11523;50.390;8.072;2023-08-06T04:01:39;4.18;;;2.63;;
22711;SDS011;11523;50.390;8.072;2023-08-06T04:04:12;3.65;;;2.53;;
22711;SDS011;11523;50.390;8.072;2023-08-06T04:06:38;7.43;;;2.75;;
22711;SDS011;11523;50.390;8.072;2023-08-06T04:09:04;3.90;;;2.53;;
22711;SDS011;11523;50.390;8.072;2023-08-06T04:11:30;4.38;;;2.42;;
22711;SDS011;11523;50.390;8.072;2023-08-06T04:13:56;4.47;;;2.75;;
22711;SDS011;11523;50.390;8.072;2023-08-06T04:16:22;4.28;;;2.58;;
22711;SDS011;11523;50.390;8.072;2023-08-06T04:18:48;4.68;;;2.25;;
22711;SDS011;11523;50.390;8.072;2023-08-06T04:21:14;4.47;;;2.30;;
22711;SDS011;11523;50.390;8.072;2023-08-06T04:23:40;4.25;;;2.50;;
22711;SDS011;11523;50.390;8.072;2023-08-06T04:26:06;3.83;;;2.60;;
22711;SDS011;11523;50.390;8.072;2023-08-06T04:28:32;5.38;;;2.90;;
22711;SDS011;11523;50.390;8.072;2023-08-06T04:30:59;5.05;;;2.40;;
22711;SDS011;11523;50.390;8.072;2023-08-06T04:33:25;3.53;;;2.40;;
22711;SDS011;11523;50.390;8.072;2023-08-06T04:35:54;5.03;;;2.60;;
22711;SDS011;11523;50.390;8.072;2023-08-06T04:38:20;5.38;;;2.60;;
22711;SDS011;11523;50.390;8.072;2023-08-06T04:40:46;4.18;;;2.65;;
22711;SDS011;11523;50.390;8.072;2023-08-06T04:43:12;6.72;;;2.78;;
22711;SDS011;11523;50.390;8.072;2023-08-06T04:45:45;6.10;;;2.80;;
22711;SDS011;11523;50.390;8.072;2023-08-06T04:48:13;3.55;;;2.30;;
22711;SDS011;11523;50.390;8.072;2023-08-06T04:50:43;5.63;;;2.70;;
22711;SDS011;11523;50.390;8.072;2023-08-06T04:53:09;3.92;;;2.58;;
22711;SDS011;11523;50.390;8.072;2023-08-06T04:55:35;4.40;;;2.90;;
22711;SDS011;11523;50.390;8.072;2023-08-06T04:58:01;5.32;;;2.85;;
22711;SDS011;11523;50.390;8.072;2023-08-06T05:00:27;5.07;;;2.75;;
22711;SDS011;11523;50.390;8.072;2023-08-06T05:02:53;3.50;;;2.63;;
22711;SDS011;11523;50.390;8.072;2023-08-06T05:05:19;6.30;;;3.03;;
22711;SDS011;11523;50.390;8.072;2023-08-06T05:07:45;3.53;;;2.72;;
22711;SDS011;11523;50.390;8.072;2023-08-06T05:10:11;4.18;;;2.50;;
22711;SDS011;11523;50.390;8.072;2023-08-06T05:12:37;6.30;;;2.78;;
22711;SDS011;11523;50.390;8.072;2023-08-06T05:15:03;4.95;;;2.50;;
22711;SDS011;11523;50.390;8.072;2023-08-06T05:17:29;3.50;;;2.65;;
22711;SDS011;11523;50.390;8.072;2023-08-06T05:19:55;4.07;;;2.60;;
22711;SDS011;11523;50.390;8.072;2023-08-06T05:22:21;6.07;;;3.05;;
22711;SDS011;11523;50.390;8.072;2023-08-06T05:24:47;3.25;;;2.60;;
22711;SDS011;11523;50.390;8.072;2023-08-06T05:27:13;4.00;;;2.35;;
22711;SDS011;11523;50.390;8.072;2023-08-06T05:29:39;3.05;;;2.45;;
22711;SDS011;11523;50.390;8.072;2023-08-06T05:32:05;4.80;;;2.72;;
22711;SDS011;11523;50.390;8.072;2023-08-06T05:34:31;4.18;;;2.42;;
22711;SDS011;11523;50.390;8.072;2023-08-06T05:36:57;5.15;;;2.63;;
22711;SDS011;11523;50.390;8.072;2023-08-06T05:39:23;4.18;;;2.00;;
22711;SDS011;11523;50.390;8.072;2023-08-06T05:41:49;3.55;;;2.20;;
22711;SDS011;11523;50.390;8.072;2023-08-06T05:44:15;4.13;;;2.33;;
22711;SDS011;11523;50.390;8.072;2023-08-06T05:46:41;4.82;;;2.08;;
22711;SDS011;11523;50.390;8.072;2023-08-06T05:49:07;3.97;;;2.20;;
22711;SDS011;11523;50.390;8.072;2023-08-06T05:51:33;4.57;;;2.10;;
22711;SDS011;11523;50.390;8.072;2023-08-06T05:53:59;2.88;;;2.00;;
22711;SDS011;11523;50.390;8.072;2023-08-06T05:56:27;2.50;;;2.13;;
22711;SDS011;11523;50.390;8.072;2023-08-06T05:58:53;3.17;;;2.20;;
22711;SDS011;11523;50.390;8.072;2023-08-06T06:01:41;2.97;;;1.80;;
22711;SDS011;11523;50.390;8.072;2023-08-06T06:04:09;3.78;;;2.03;;
22711;SDS011;11523;50.390;8.072;2023-08-06T06:06:35;4.07;;;1.80;;
22711;SDS011;11523;50.390;8.072;2023-08-06T06:09:04;2.53;;;1.85;;
22711;SDS011;11523;50.390;8.072;2023-08-06T06:11:30;2.10;;;1.65;;
22711;SDS011;11523;50.390;8.072;2023-08-06T06:13:56;3.00;;;2.03;;
22711;SDS011;11523;50.390;8.072;2023-08-06T06:16:22;1.73;;;1.55;;
22711;SDS011;11523;50.390;8.072;2023-08-06T06:18:48;3.65;;;1.63;;
22711;SDS011;11523;50.390;8.072;2023-08-06T06:21:14;2.90;;;1.67;;
22711;SDS011;11523;50.390;8.072;2023-08-06T06:23:40;1.73;;;1.50;;
22711;SDS011;11523;50.390;8.072;2023-08-06T06:26:06;2.47;;;1.73;;
22711;SDS011;11523;50.390;8.072;2023-08-06T06:28:31;1.70;;;1.60;;
22711;SDS011;11523;50.390;8.072;2023-08-06T06:31:04;2.05;;;1.63;;
22711;SDS011;11523;50.390;8.072;2023-08-06T06:33:30;1.63;;;1.52;;
22711;SDS011;11523;50.390;8.072;2023-08-06T06:35:56;2.00;;;1.67;;
22711;SDS011;11523;50.390;8.072;2023-08-06T06:44:20;1.60;;;1.42;;
22711;SDS011;11523;50.390;8.072;2023-08-06T06:46:46;1.90;;;1.40;;
22711;SDS011;11523;50.390;8.072;2023-08-06T06:49:12;2.58;;;1.20;;
22711;SDS011;11523;50.390;8.072;2023-08-06T06:51:38;1.67;;;1.30;;
22711;SDS011;11523;50.390;8.072;2023-08-06T06:54:04;2.42;;;1.40;;
22711;SDS011;11523;50.390;8.072;2023-08-06T06:56:30;2.08;;;1.38;;
22711;SDS011;11523;50.390;8.072;2023-08-06T06:58:55;2.33;;;1.10;;
22711;SDS011;11523;50.390;8.072;2023-08-06T07:01:21;1.92;;;1.42;;
22711;SDS011;11523;50.390;8.072;2023-08-06T07:03:47;1.88;;;1.15;;
22711;SDS011;11523;50.390;8.072;2023-08-06T07:06:13;1.20;;;1.10;;
22711;SDS011;11523;50.390;8.072;2023-08-06T07:08:40;1.98;;;1.10;;
22711;SDS011;11523;50.390;8.072;2023-08-06T07:11:25;2.80;;;1.20;;
22711;SDS011;11523;50.390;8.072;2023-08-06T07:14:34;1.00;;;0.90;;
22711;SDS011;11523;50.390;8.072;2023-08-06T07:17:28;2.15;;;0.88;;
22711;SDS011;11523;50.390;8.072;2023-08-06T07:26:16;2.88;;;1.00;;
22711;SDS011;11523;50.390;8.072;2023-08-06T07:29:12;1.77;;;1.00;;
22711;SDS011;11523;50.390;8.072;2023-08-06T07:34:48;1.60;;;1.00;;
22711;SDS011;11523;50.390;8.072;2023-08-06T07:37:14;1.00;;;0.73;;
22711;SDS011;11523;50.390;8.072;2023-08-06T07:39:40;1.75;;;0.82;;
22711;SDS011;11523;50.390;8.072;2023-08-06T07:42:07;1.00;;;0.90;;
22711;SDS011;11523;50.390;8.072;2023-08-06T07:44:36;1.42;;;0.60;;
22711;SDS011;11523;50.390;8.072;2023-08-06T07:47:02;2.58;;;0.77;;
22711;SDS011;11523;50.390;8.072;2023-08-06T07:49:28;1.00;;;0.60;;
22711;SDS011;11523;50.390;8.072;2023-08-06T07:51:54;2.10;;;0.80;;
22711;SDS011;11523;50.390;8.072;2023-08-06T07:54:20;1.83;;;0.98;;
22711;SDS011;11523;50.390;8.072;2023-08-06T07:56:46;1.08;;;0.50;;
22711;SDS011;11523;50.390;8.072;2023-08-06T07:59:12;0.60;;;0.60;;
22711;SDS011;11523;50.390;8.072;2023-08-06T08:01:38;1.05;;;0.70;;
22711;SDS011;11523;50.390;8.072;2023-08-06T08:04:04;0.80;;;0.70;;
22711;SDS011;11523;50.390;8.072;2023-08-06T08:06:30;2.47;;;1.15;;
22711;SDS011;11523;50.390;8.072;2023-08-06T08:08:56;1.40;;;0.80;;
22711;SDS011;11523;50.390;8.072;2023-08-06T08:11:22;0.75;;;0.55;;
22711;SDS011;11523;50.390;8.072;2023-08-06T08:13:48;1.83;;;0.50;;
22711;SDS011;11523;50.390;8.072;2023-08-06T08:16:14;0.80;;;0.70;;
22711;SDS011;11523;50.390;8.072;2023-08-06T08:18:40;2.88;;;0.52;;
22711;SDS011;11523;50.390;8.072;2023-08-06T08:21:06;0.80;;;0.40;;
22711;SDS011;11523;50.390;8.072;2023-08-06T08:23:32;1.02;;;0.52;;
22711;SDS011;11523;50.390;8.072;2023-08-06T08:25:58;1.58;;;0.50;;
22711;SDS011;11523;50.390;8.072;2023-08-06T08:28:24;0.73;;;0.70;;
22711;SDS011;11523;50.390;8.072;2023-08-06T08:30:50;1.48;;;0.80;;
22711;SDS011;11523;50.390;8.072;2023-08-06T08:33:16;0.30;;;0.30;;
22711;SDS011;11523;50.390;8.072;2023-08-06T08:35:42;2.17;;;0.82;;
22711;SDS011;11523;50.390;8.072;2023-08-06T08:38:08;0.70;;;0.52;;
22711;SDS011;11523;50.390;8.072;2023-08-06T08:40:34;1.83;;;0.80;;
22711;SDS011;11523;50.390;8.072;2023-08-06T08:43:03;1.00;;;0.63;;
22711;SDS011;11523;50.390;8.072;2023-08-06T08:45:30;2.72;;;0.68;;
22711;SDS011;11523;50.390;8.072;2023-08-06T08:47:59;2.45;;;0.70;;
22711;SDS011;11523;50.390;8.072;2023-08-06T08:50:26;2.30;;;0.50;;
22711;SDS011;11523;50.390;8.072;2023-08-06T08:52:52;1.00;;;0.70;;
22711;SDS011;11523;50.390;8.072;2023-08-06T08:55:24;0.70;;;0.60;;
22711;SDS011;11523;50.390;8.072;2023-08-06T08:57:50;0.80;;;0.60;;
22711;SDS011;11523;50.390;8.072;2023-08-06T09:00:16;2.05;;;0.70;;
22711;SDS011;11523;50.390;8.072;2023-08-06T09:02:42;2.15;;;0.70;;
22711;SDS011;11523;50.390;8.072;2023-08-06T09:05:10;1.25;;;0.60;;
22711;SDS011;11523;50.390;8.072;2023-08-06T09:07:42;3.22;;;0.73;;
22711;SDS011;11523;50.390;8.072;2023-08-06T09:10:10;0.60;;;0.50;;
22711;SDS011;11523;50.390;8.072;2023-08-06T09:12:38;0.40;;;0.40;;
22711;SDS011;11523;50.390;8.072;2023-08-06T09:15:04;0.68;;;0.60;;
22711;SDS011;11523;50.390;8.072;2023-08-06T09:17:30;0.75;;;0.57;;
22711;SDS011;11523;50.390;8.072;2023-08-06T09:19:56;0.75;;;0.50;;
22711;SDS011;11523;50.390;8.072;2023-08-06T09:22:23;1.75;;;0.43;;
22711;SDS011;11523;50.390;8.072;2023-08-06T09:24:49;1.30;;;0.60;;
22711;SDS011;11523;50.390;8.072;2023-08-06T09:27:15;1.65;;;0.60;;
22711;SDS011;11523;50.390;8.072;2023-08-06T09:29:41;0.65;;;0.60;;
22711;SDS011;11523;50.390;8.072;2023-08-06T09:32:07;0.40;;;0.40;;
22711;SDS011;11523;50.390;8.072;2023-08-06T09:34:33;0.55;;;0.40;;
22711;SDS011;11523;50.390;8.072;2023-08-06T09:36:59;1.05;;;0.55;;
22711;SDS011;11523;50.390;8.072;2023-08-06T09:39:26;0.30;;;0.30;;
22711;SDS011;11523;50.390;8.072;2023-08-06T09:41:56;1.33;;;0.47;;
22711;SDS011;11523;50.390;8.072;2023-08-06T09:44:24;0.55;;;0.38;;
22711;SDS011;11523;50.390;8.072;2023-08-06T09:46:54;0.43;;;0.43;;
22711;SDS011;11523;50.390;8.072;2023-08-06T09:49:22;0.40;;;0.40;;
22711;SDS011;11523;50.390;8.072;2023-08-06T09:51:48;0.70;;;0.70;;
22711;SDS011;11523;50.390;8.072;2023-08-06T09:54:16;0.95;;;0.55;;
22711;SDS011;11523;50.390;8.072;2023-08-06T09:56:43;0.60;;;0.50;;
22711;SDS011;11523;50.390;8.072;2023-08-06T09:59:09;1.30;;;0.60;;
22711;SDS011;11523;50.390;8.072;2023-08-06T10:01:36;0.55;;;0.55;;
22711;SDS011;11523;50.390;8.072;2023-08-06T10:04:16;0.90;;;0.60;;
22711;SDS011;11523;50.390;8.072;2023-08-06T10:06:43;1.55;;;0.52;;
22711;SDS011;11523;50.390;8.072;2023-08-06T10:09:11;0.50;;;0.50;;
22711;SDS011;11523;50.390;8.072;2023-08-06T10:11:38;0.85;;;0.63;;
22711;SDS011;11523;50.390;8.072;2023-08-06T10:14:16;0.50;;;0.50;;
22711;SDS011;11523;50.390;8.072;2023-08-06T10:16:44;0.50;;;0.50;;
22711;SDS011;11523;50.390;8.072;2023-08-06T10:19:10;1.02;;;0.60;;
22711;SDS011;11523;50.390;8.072;2023-08-06T10:21:38;1.55;;;0.60;;
22711;SDS011;11523;50.390;8.072;2023-08-06T10:24:06;0.43;;;0.43;;
22711;SDS011;11523;50.390;8.072;2023-08-06T10:26:35;0.55;;;0.55;;
22711;SDS011;11523;50.390;8.072;2023-08-06T10:29:01;0.65;;;0.40;;
22711;SDS011;11523;50.390;8.072;2023-08-06T10:34:18;0.77;;;0.77;;
22711;SDS011;11523;50.390;8.072;2023-08-06T10:36:50;0.60;;;0.60;;
22711;SDS011;11523;50.390;8.072;2023-08-06T10:39:19;0.82;;;0.63;;
22711;SDS011;11523;50.390;8.072;2023-08-06T10:41:45;3.38;;;0.73;;
22711;SDS011;11523;50.390;8.072;2023-08-06T10:44:11;1.48;;;0.73;;
22711;SDS011;11523;50.390;8.072;2023-08-06T10:46:37;1.30;;;0.90;;
22711;SDS011;11523;50.390;8.072;2023-08-06T10:49:04;0.77;;;0.60;;
22711;SDS011;11523;50.390;8.072;2023-08-06T10:51:32;0.90;;;0.85;;
22711;SDS011;11523;50.390;8.072;2023-08-06T10:53:58;2.13;;;0.90;;
22711;SDS011;11523;50.390;8.072;2023-08-06T10:56:24;4.53;;;0.90;;
22711;SDS011;11523;50.390;8.072;2023-08-06T10:58:54;1.95;;;0.50;;
22711;SDS011;11523;50.390;8.072;2023-08-06T11:01:23;0.50;;;0.40;;
22711;SDS011;11523;50.390;8.072;2023-08-06T11:03:50;0.30;;;0.30;;
22711;SDS011;11523;50.390;8.072;2023-08-06T11:06:18;1.92;;;0.50;;
22711;SDS011;11523;50.390;8.072;2023-08-06T11:08:48;0.40;;;0.40;;
22711;SDS011;11523;50.390;8.072;2023-08-06T11:11:15;0.85;;;0.45;;
22711;SDS011;11523;50.390;8.072;2023-08-06T11:13:48;0.35;;;0.35;;
22711;SDS011;11523;50.390;8.072;2023-08-06T11:16:14;0.30;;;0.30;;
22711;SDS011;11523;50.390;8.072;2023-08-06T11:18:41;0.77;;;0.30;;
22711;SDS011;11523;50.390;8.072;2023-08-06T11:21:07;0.30;;;0.30;;
22711;SDS011;11523;50.390;8.072;2023-08-06T11:23:33;0.40;;;0.32;;
22711;SDS011;11523;50.390;8.072;2023-08-06T11:26:00;0.40;;;0.40;;
22711;SDS011;11523;50.390;8.072;2023-08-06T11:28:26;1.05;;;0.60;;
22711;SDS011;11523;50.390;8.072;2023-08-06T11:30:52;0.52;;;0.40;;
22711;SDS011;11523;50.390;8.072;2023-08-06T11:33:23;0.82;;;0.50;;
22711;SDS011;11523;50.390;8.072;2023-08-06T11:35:50;0.40;;;0.40;;
22711;SDS011;11523;50.390;8.072;2023-08-06T11:38:16;0.50;;;0.50;;
22711;SDS011;11523;50.390;8.072;2023-08-06T11:40:46;2.22;;;0.60;;
22711;SDS011;11523;50.390;8.072;2023-08-06T11:43:13;0.40;;;0.40;;
22711;SDS011;11523;50.390;8.072;2023-08-06T11:45:40;1.00;;;0.50;;
22711;SDS011;11523;50.390;8.072;2023-08-06T11:48:07;0.82;;;0.60;;
22711;SDS011;11523;50.390;8.072;2023-08-06T11:50:36;0.82;;;0.60;;
22711;SDS011;11523;50.390;8.072;2023-08-06T11:53:05;1.13;;;0.80;;
22711;SDS011;11523;50.390;8.072;2023-08-06T11:55:31;0.50;;;0.50;;
22711;SDS011;11523;50.390;8.072;2023-08-06T11:57:57;0.80;;;0.60;;
22711;SDS011;11523;50.390;8.072;2023-08-06T12:00:24;1.85;;;0.60;;
22711;SDS011;11523;50.390;8.072;2023-08-06T12:02:50;0.40;;;0.40;;
22711;SDS011;11523;50.390;8.072;2023-08-06T12:05:21;2.85;;;0.70;;
22711;SDS011;11523;50.390;8.072;2023-08-06T12:07:51;1.20;;;0.52;;
22711;SDS011;11523;50.390;8.072;2023-08-06T12:10:17;1.17;;;0.82;;
22711;SDS011;11523;50.390;8.072;2023-08-06T12:12:46;1.92;;;0.80;;
22711;SDS011;11523;50.390;8.072;2023-08-06T12:15:12;2.38;;;0.60;;
22711;SDS011;11523;50.390;8.072;2023-08-06T12:17:38;0.65;;;0.65;;
22711;SDS011;11523;50.390;8.072;2023-08-06T12:20:05;1.73;;;1.20;;
22711;SDS011;11523;50.390;8.072;2023-08-06T12:22:31;1.02;;;0.50;;
22711;SDS011;11523;50.390;8.072;2023-08-06T12:25:00;1.08;;;0.68;;
22711;SDS011;11523;50.390;8.072;2023-08-06T12:27:27;1.05;;;0.68;;
22711;SDS011;11523;50.390;8.072;2023-08-06T12:29:53;0.40;;;0.40;;
22711;SDS011;11523;50.390;8.072;2023-08-06T12:32:19;0.88;;;0.70;;
22711;SDS011;11523;50.390;8.072;2023-08-06T12:34:45;0.43;;;0.43;;
22711;SDS011;11523;50.390;8.072;2023-08-06T12:37:11;1.02;;;0.80;;
22711;SDS011;11523;50.390;8.072;2023-08-06T12:39:37;1.35;;;0.60;;
22711;SDS011;11523;50.390;8.072;2023-08-06T12:42:04;1.58;;;0.90;;
22711;SDS011;11523;50.390;8.072;2023-08-06T12:44:30;0.88;;;0.65;;
22711;SDS011;11523;50.390;8.072;2023-08-06T12:46:56;1.23;;;0.73;;
22711;SDS011;11523;50.390;8.072;2023-08-06T12:49:22;0.95;;;0.73;;
22711;SDS011;11523;50.390;8.072;2023-08-06T12:51:48;2.67;;;0.63;;
22711;SDS011;11523;50.390;8.072;2023-08-06T12:54:17;1.63;;;0.70;;
22711;SDS011;11523;50.390;8.072;2023-08-06T12:56:44;1.02;;;0.70;;
22711;SDS011;11523;50.390;8.072;2023-08-06T12:59:10;0.95;;;0.50;;
22711;SDS011;11523;50.390;8.072;2023-08-06T13:01:37;0.80;;;0.50;;
22711;SDS011;11523;50.390;8.072;2023-08-06T13:04:03;2.35;;;0.50;;
22711;SDS011;11523;50.390;8.072;2023-08-06T13:06:29;2.25;;;0.82;;
22711;SDS011;11523;50.390;8.072;2023-08-06T13:08:56;0.82;;;0.80;;
22711;SDS011;11523;50.390;8.072;2023-08-06T13:11:22;0.80;;;0.55;;
22711;SDS011;11523;50.390;8.072;2023-08-06T13:13:48;0.82;;;0.40;;
22711;SDS011;11523;50.390;8.072;2023-08-06T13:16:14;0.85;;;0.50;;
22711;SDS011;11523;50.390;8.072;2023-08-06T13:18:40;1.17;;;0.80;;
22711;SDS011;11523;50.390;8.072;2023-08-06T13:21:06;0.55;;;0.40;;
22711;SDS011;11523;50.390;8.072;2023-08-06T13:23:32;1.08;;;0.80;;
22711;SDS011;11523;50.390;8.072;2023-08-06T13:25:58;0.60;;;0.40;;
22711;SDS011;11523;50.390;8.072;2023-08-06T13:28:24;0.90;;;0.47;;
22711;SDS011;11523;50.390;8.072;2023-08-06T13:30:50;0.50;;;0.47;;
22711;SDS011;11523;50.390;8.072;2023-08-06T13:33:16;0.55;;;0.50;;
22711;SDS011;11523;50.390;8.072;2023-08-06T13:35:42;0.63;;;0.50;;
22711;SDS011;11523;50.390;8.072;2023-08-06T13:38:08;0.85;;;0.50;;
22711;SDS011;11523;50.390;8.072;2023-08-06T13:40:35;0.60;;;0.60;;
22711;SDS011;11523;50.390;8.072;2023-08-06T13:43:01;0.60;;;0.52;;
22711;SDS011;11523;50.390;8.072;2023-08-06T13:45:27;0.88;;;0.50;;
22711;SDS011;11523;50.390;8.072;2023-08-06T13:47:53;1.25;;;0.77;;
22711;SDS011;11523;50.390;8.072;2023-08-06T13:50:19;1.15;;;0.70;;
22711;SDS011;11523;50.390;8.072;2023-08-06T13:52:47;1.05;;;0.50;;
22711;SDS011;11523;50.390;8.072;2023-08-06T13:55:12;0.45;;;0.35;;
22711;SDS011;11523;50.390;8.072;2023-08-06T13:57:38;1.08;;;0.60;;
22711;SDS011;11523;50.390;8.072;2023-08-06T14:00:05;0.55;;;0.50;;
22711;SDS011;11523;50.390;8.072;2023-08-06T14:02:31;0.40;;;0.38;;
22711;SDS011;11523;50.390;8.072;2023-08-06T14:04:57;1.15;;;0.60;;
22711;SDS011;11523;50.390;8.072;2023-08-06T14:07:23;0.88;;;0.60;;
22711;SDS011;11523;50.390;8.072;2023-08-06T14:09:49;0.50;;;0.50;;
22711;SDS011;11523;50.390;8.072;2023-08-06T14:12:15;1.33;;;0.50;;
22711;SDS011;11523;50.390;8.072;2023-08-06T14:14:41;0.30;;;0.20;;
22711;SDS011;11523;50.390;8.072;2023-08-06T14:17:08;0.43;;;0.43;;
22711;SDS011;11523;50.390;8.072;2023-08-06T14:19:33;1.83;;;0.35;;
22711;SDS011;11523;50.390;8.072;2023-08-06T14:21:59;0.70;;;0.57;;
22711;SDS011;11523;50.390;8.072;2023-08-06T14:24:25;1.15;;;0.43;;
22711;SDS011;11523;50.390;8.072;2023-08-06T14:26:51;0.30;;;0.30;;
22711;SDS011;11523;50.390;8.072;2023-08-06T14:29:17;0.40;;;0.40;;
22711;SDS011;11523;50.390;8.072;2023-08-06T14:31:43;0.60;;;0.30;;
22711;SDS011;11523;50.390;8.072;2023-08-06T14:34:09;1.13;;;0.43;;
22711;SDS011;11523;50.390;8.072;2023-08-06T14:36:35;0.55;;;0.55;;
22711;SDS011;11523;50.390;8.072;2023-08-06T14:39:01;0.30;;;0.30;;
22711;SDS011;11523;50.390;8.072;2023-08-06T14:41:27;0.50;;;0.50;;
22711;SDS011;11523;50.390;8.072;2023-08-06T14:43:53;2.90;;;0.60;;
22711;SDS011;11523;50.390;8.072;2023-08-06T14:46:19;0.55;;;0.55;;
22711;SDS011;11523;50.390;8.072;2023-08-06T14:48:45;0.70;;;0.50;;
22711;SDS011;11523;50.390;8.072;2023-08-06T14:51:11;0.60;;;0.60;;
22711;SDS011;11523;50.390;8.072;2023-08-06T14:53:37;2.97;;;0.80;;
22711;SDS011;11523;50.390;8.072;2023-08-06T14:56:03;1.08;;;0.70;;
22711;SDS011;11523;50.390;8.072;2023-08-06T14:58:29;1.70;;;1.00;;
22711;SDS011;11523;50.390;8.072;2023-08-06T15:00:54;2.00;;;0.77;;
22711;SDS011;11523;50.390;8.072;2023-08-06T15:03:20;1.35;;;0.90;;
22711;SDS011;11523;50.390;8.072;2023-08-06T15:05:47;2.38;;;1.08;;
22711;SDS011;11523;50.390;8.072;2023-08-06T15:08:13;1.40;;;0.75;;
22711;SDS011;11523;50.390;8.072;2023-08-06T15:10:39;1.00;;;0.75;;